Time;durP1;ratioP1;P1;durP2;ratioP2;P2;SDS_P1;SDS_P2;PMS_P1;PMS_P2;Temp;Humidity;BMP_temperature;BMP_pressure;BME280_temperature;BME280_humidity;BME280_pressure;Samples;Min_cycle;Max_cycle;Signal;HPM_P1;HPM_P2
2023/05/30 00:01:23;;;;;;;15.13;3.20;;;;;;;9.79;86.60;101774.25;4912960;29;20052;-79
2023/05/30 00:03:50;;;;;;;20.42;4.43;;;;;;;9.74;87.48;101775.06;4927002;29;20487;-80
2023/05/30 00:06:17;;;;;;;12.90;3.00;;;;;;;9.68;87.79;101769.75;4912763;29;20079;-82
2023/05/30 00:08:44;;;;;;;12.52;2.95;;;;;;;9.66;88.72;101767.97;4928649;29;20051;-89
2023/05/30 00:11:13;;;;;;;13.63;3.25;;;;;;;9.58;88.12;101760.03;4924873;29;20039;-80
2023/05/30 00:13:42;;;;;;;16.05;3.17;;;;;;;9.52;89.01;101771.28;4925908;29;20047;-82
2023/05/30 00:16:10;;;;;;;15.63;3.85;;;;;;;9.48;89.29;101772.13;4936583;29;20525;-80
2023/05/30 00:18:40;;;;;;;8.98;3.08;;;;;;;9.41;90.00;101776.38;4932194;29;20118;-80
2023/05/30 00:21:09;;;;;;;19.70;3.53;;;;;;;9.38;90.05;101772.84;4924851;29;20036;-80
2023/05/30 00:23:38;;;;;;;16.88;4.32;;;;;;;9.39;90.52;101777.22;4913852;29;20047;-83
2023/05/30 00:26:08;;;;;;;12.68;3.20;;;;;;;9.37;90.72;101778.91;4927728;29;20075;-81
2023/05/30 00:28:34;;;;;;;11.07;2.83;;;;;;;9.29;91.11;101763.13;4931756;29;20149;-82
2023/05/30 00:31:01;;;;;;;22.60;3.47;;;;;;;9.30;91.77;101770.13;4928131;29;20048;-83
2023/05/30 00:33:27;;;;;;;16.75;3.60;;;;;;;9.29;91.77;101772.72;4946441;29;20044;-84
2023/05/30 00:35:54;;;;;;;12.05;2.97;;;;;;;9.25;91.92;101764.81;4927277;29;20395;-82
2023/05/30 00:38:20;;;;;;;11.02;3.38;;;;;;;9.19;92.39;101769.97;4927665;29;20050;-85
2023/05/30 00:40:47;;;;;;;22.20;5.43;;;;;;;9.15;93.13;101770.78;4928884;29;20043;-83
2023/05/30 00:43:15;;;;;;;8.85;2.60;;;;;;;9.10;93.65;101770.72;4944342;29;20102;-83
2023/05/30 00:45:42;;;;;;;15.90;3.45;;;;;;;9.05;94.70;101769.75;4923794;29;20044;-80
2023/05/30 00:48:08;;;;;;;11.93;3.40;;;;;;;8.98;95.00;101774.84;4927966;29;20059;-79
2023/05/30 00:50:36;;;;;;;16.67;3.08;;;;;;;8.95;95.47;101767.84;4926238;29;20039;-82
2023/05/30 00:53:04;;;;;;;17.30;3.38;;;;;;;8.94;96.15;101771.31;4923089;29;20048;-80
2023/05/30 00:55:31;;;;;;;13.00;5.00;;;;;;;8.93;96.43;101772.19;4925762;29;20051;-88
2023/05/30 00:57:59;;;;;;;11.93;3.08;;;;;;;8.88;97.21;101779.94;4908729;29;20059;-82
2023/05/30 01:00:27;;;;;;;13.40;3.70;;;;;;;8.88;97.29;101784.28;4926020;29;20513;-84
2023/05/30 01:02:59;;;;;;;13.10;2.92;;;;;;;8.88;98.04;101782.56;4928982;29;20075;-85
2023/05/30 01:05:28;;;;;;;13.55;3.33;;;;;;;8.88;98.45;101782.56;4926009;29;20055;-81
2023/05/30 01:07:55;;;;;;;13.40;3.28;;;;;;;8.87;99.30;101777.31;4923271;29;20037;-80
2023/05/30 01:10:22;;;;;;;15.52;3.70;;;;;;;8.90;99.36;101796.53;4934852;29;20044;-79
2023/05/30 01:13:15;;;;;;;16.02;3.22;;;;;;;8.88;99.58;101792.13;4939432;29;20060;-85
2023/05/30 01:15:52;;;;;;;13.60;3.03;;;;;;;8.87;99.94;101787.75;4929228;29;20460;-80
2023/05/30 01:18:46;;;;;;;15.02;3.38;;;;;;;8.85;100.00;101792.97;4927540;29;20131;-79
2023/05/30 01:21:16;;;;;;;11.95;4.85;;;;;;;8.84;100.00;101798.13;4925507;29;20052;-79
2023/05/30 01:24:15;;;;;;;20.67;5.82;;;;;;;8.80;100.00;101796.31;4923613;29;20486;-82
2023/05/30 01:27:13;;;;;;;9.30;3.30;;;;;;;8.76;100.00;101792.78;4929407;29;20046;-80
2023/05/30 01:29:42;;;;;;;10.80;2.40;;;;;;;8.74;100.00;101791.88;4944891;29;20051;-80
2023/05/30 01:32:09;;;;;;;19.30;3.47;;;;;;;8.74;100.00;101790.13;4928616;29;20034;-84
2023/05/30 01:34:35;;;;;;;25.73;5.78;;;;;;;8.69;100.00;101783.97;4915343;29;20043;-80
2023/05/30 01:37:02;;;;;;;15.50;5.38;;;;;;;8.64;100.00;101788.22;4941372;29;20040;-80
2023/05/30 01:39:29;;;;;;;13.35;3.45;;;;;;;8.63;100.00;101782.97;4914213;29;20058;-80
2023/05/30 01:42:23;;;;;;;18.27;4.57;;;;;;;8.64;100.00;101789.97;4923155;29;20736;-82
2023/05/30 01:45:14;;;;;;;12.82;3.72;;;;;;;8.63;100.00;101783.88;4929708;29;20122;-85
2023/05/30 01:47:58;;;;;;;14.27;3.58;;;;;;;8.55;100.00;101783.75;4936031;28;20074;-80
2023/05/30 01:50:30;;;;;;;;;;;;;;;8.54;100.00;101781.97;4926558;29;20055;-80
2023/05/30 01:53:00;;;;;;;15.63;4.35;;;;;;;8.49;100.00;101780.16;4940443;29;19930;-80
2023/05/30 01:55:31;;;;;;;12.23;3.65;;;;;;;8.48;100.00;101788.81;4945430;29;20047;-78
2023/05/30 01:57:59;;;;;;;16.02;3.90;;;;;;;8.43;100.00;101789.59;4943938;29;20099;-83
2023/05/30 02:00:26;;;;;;;13.70;4.10;;;;;;;8.41;100.00;101785.19;4929128;29;21454;-78
2023/05/30 02:02:52;;;;;;;13.88;4.38;;;;;;;8.40;100.00;101786.91;4927761;29;20479;-79
2023/05/30 02:05:19;;;;;;;20.00;3.65;;;;;;;8.40;100.00;101793.88;4926619;29;20104;-79
2023/05/30 02:07:45;;;;;;;14.05;3.83;;;;;;;8.38;100.00;101792.94;4925293;29;20043;-79
2023/05/30 02:10:12;;;;;;;17.92;5.18;;;;;;;8.40;100.00;101799.09;4921530;29;20044;-80
2023/05/30 02:12:38;;;;;;;15.48;5.30;;;;;;;8.36;100.00;101794.66;4914647;29;20882;-84
2023/05/30 02:15:05;;;;;;;16.63;3.78;;;;;;;8.30;100.00;101787.59;4929510;29;20048;-82
2023/05/30 02:17:32;;;;;;;12.88;3.92;;;;;;;8.28;100.00;101798.00;4946664;29;20071;-80
2023/05/30 02:19:59;;;;;;;14.65;4.10;;;;;;;8.28;100.00;101799.75;4928427;29;20083;-80
2023/05/30 02:22:25;;;;;;;18.15;4.93;;;;;;;8.24;100.00;101797.94;4935190;29;21006;-82
2023/05/30 02:24:52;;;;;;;12.70;4.40;;;;;;;8.23;100.00;101802.25;4930351;29;20040;-83
2023/05/30 02:27:20;;;;;;;21.30;4.20;;;;;;;8.20;100.00;101807.41;4931248;29;20050;-80
2023/05/30 02:29:46;;;;;;;10.73;3.88;;;;;;;8.17;100.00;101803.88;4913306;29;20475;-80
2023/05/30 02:32:13;;;;;;;16.08;4.43;;;;;;;8.15;100.00;101805.56;4931727;29;20044;-79
2023/05/30 02:34:39;;;;;;;11.20;4.13;;;;;;;8.14;100.00;101809.03;4929773;29;20039;-84
2023/05/30 02:37:07;;;;;;;18.10;4.60;;;;;;;8.08;100.00;101815.00;4899537;29;20039;-84
2023/05/30 02:39:33;;;;;;;13.13;4.13;;;;;;;8.09;100.00;101812.41;4928041;29;20063;-85
2023/05/30 02:42:00;;;;;;;16.77;4.30;;;;;;;8.05;100.00;101810.59;4928230;29;20052;-81
2023/05/30 02:44:26;;;;;;;12.57;3.83;;;;;;;8.05;100.00;101817.53;4922513;29;20066;-80
2023/05/30 02:46:53;;;;;;;23.45;5.53;;;;;;;8.04;100.00;101818.38;4930131;29;20040;-80
2023/05/30 02:49:19;;;;;;;17.25;5.20;;;;;;;8.06;100.00;101824.53;4925198;29;20040;-79
2023/05/30 02:51:46;;;;;;;17.13;4.65;;;;;;;8.05;100.00;101826.22;4913601;29;20071;-83
2023/05/30 02:54:12;;;;;;;21.55;4.15;;;;;;;8.00;100.00;101830.47;4930267;29;20039;-80
2023/05/30 02:56:39;;;;;;;13.98;4.15;;;;;;;7.98;100.00;101831.28;4933447;29;20062;-80
2023/05/30 02:59:06;;;;;;;14.20;4.13;;;;;;;7.96;100.00;101828.66;4914458;29;20660;-81
2023/05/30 03:01:32;;;;;;;15.13;4.05;;;;;;;7.94;100.00;101839.06;4934232;29;20375;-88
2023/05/30 03:03:59;;;;;;;9.45;4.32;;;;;;;7.91;100.00;101833.78;4919897;29;20656;-80
2023/05/30 03:06:25;;;;;;;19.80;5.25;;;;;;;7.90;100.00;101834.63;4917923;29;20048;-80
2023/05/30 03:09:00;;;;;;;15.90;3.78;;;;;;;7.92;100.00;101832.91;4929670;29;20051;-80
2023/05/30 03:11:27;;;;;;;14.23;4.20;;;;;;;7.95;100.00;101834.72;4943461;29;20054;-83
2023/05/30 03:13:54;;;;;;;17.10;4.68;;;;;;;7.96;100.00;101828.66;4895047;29;20127;-79
2023/05/30 03:16:21;;;;;;;11.50;4.45;;;;;;;7.98;100.00;101831.28;4931282;29;20036;-81
2023/05/30 03:18:49;;;;;;;12.15;3.95;;;;;;;7.98;100.00;101832.19;4928732;29;20062;-80
2023/05/30 03:21:16;;;;;;;14.88;4.28;;;;;;;7.99;100.00;101831.34;4924738;29;20452;-78
2023/05/30 03:23:44;;;;;;;12.95;3.67;;;;;;;7.97;100.00;101832.16;4918664;29;20058;-80
2023/05/30 03:26:10;;;;;;;14.20;4.40;;;;;;;7.96;100.00;101836.47;4930068;29;20040;-80
2023/05/30 03:28:37;;;;;;;14.00;3.47;;;;;;;7.94;100.00;101843.41;4927336;29;20058;-80
2023/05/30 03:31:03;;;;;;;17.05;4.13;;;;;;;7.92;100.00;101845.97;4915960;29;20176;-82
2023/05/30 03:33:30;;;;;;;13.90;4.85;;;;;;;7.99;100.00;101840.88;4912350;29;20131;-82
2023/05/30 03:35:56;;;;;;;15.50;4.55;;;;;;;8.00;100.00;101848.72;4941915;29;20073;-83
2023/05/30 03:38:23;;;;;;;20.77;4.28;;;;;;;8.03;100.00;101840.09;4925321;29;20104;-83
2023/05/30 03:40:49;;;;;;;14.60;3.80;;;;;;;8.09;100.00;101845.44;4931567;29;20617;-80
2023/05/30 03:43:16;;;;;;;28.23;5.57;;;;;;;8.16;100.00;101854.25;4935517;29;20107;-81
2023/05/30 03:45:42;;;;;;;11.60;3.53;;;;;;;8.19;100.00;101862.16;4933388;29;20051;-80
2023/05/30 03:48:09;;;;;;;15.77;6.18;;;;;;;8.22;100.00;101859.63;4931316;29;20074;-79
2023/05/30 03:50:36;;;;;;;12.85;4.20;;;;;;;8.23;100.00;101859.63;4927546;29;20095;-79
2023/05/30 03:53:02;;;;;;;17.45;4.15;;;;;;;8.23;100.00;101859.63;4924696;29;20040;-84
2023/05/30 03:55:29;;;;;;;15.50;4.07;;;;;;;8.28;100.00;101860.63;4931271;29;20040;-83
2023/05/30 03:57:55;;;;;;;11.02;3.75;;;;;;;8.30;100.00;101855.41;4928012;29;20047;-80
2023/05/30 04:00:21;;;;;;;16.38;4.10;;;;;;;8.32;100.00;101858.06;4930689;29;20035;-81
2023/05/30 04:02:48;;;;;;;13.15;4.50;;;;;;;8.32;100.00;101863.28;4934689;29;20042;-80
2023/05/30 04:05:14;;;;;;;12.15;3.83;;;;;;;8.29;100.00;101864.09;4931560;29;20065;-81
2023/05/30 04:07:41;;;;;;;13.40;3.72;;;;;;;8.30;100.00;101868.47;4935813;29;20055;-81
2023/05/30 04:10:07;;;;;;;13.55;4.18;;;;;;;8.31;100.00;101861.53;4925961;29;20048;-79
2023/05/30 04:12:34;;;;;;;15.88;3.63;;;;;;;8.36;100.00;101870.34;4934957;29;20039;-80
2023/05/30 04:15:01;;;;;;;14.13;4.45;;;;;;;8.41;100.00;101873.91;4932776;29;20048;-82
2023/05/30 04:17:28;;;;;;;15.93;3.90;;;;;;;8.42;100.00;101878.25;4940608;29;20427;-84
2023/05/30 04:19:54;;;;;;;8.85;3.75;;;;;;;8.46;100.00;101876.63;4914638;29;20075;-80
2023/05/30 04:22:21;;;;;;;13.07;3.95;;;;;;;8.48;100.00;101881.03;4918275;29;20040;-80
2023/05/30 04:24:47;;;;;;;13.27;3.42;;;;;;;8.53;100.00;101883.75;4927592;29;20044;-82
2023/05/30 04:27:17;;;;;;;15.93;4.93;;;;;;;8.56;100.00;101881.19;4930073;29;20043;-80
2023/05/30 04:29:43;;;;;;;9.98;4.55;;;;;;;8.59;100.00;101883.84;4931733;29;20054;-80
2023/05/30 04:32:22;;;;;;;14.60;4.10;;;;;;;8.59;100.00;101882.13;4931647;29;21536;-83
2023/05/30 04:34:48;;;;;;;14.38;3.75;;;;;;;8.62;100.00;101889.13;4916813;29;20043;-80
2023/05/30 04:37:17;;;;;;;7.38;3.80;;;;;;;8.64;100.00;101882.19;4918263;29;20438;-79
2023/05/30 04:39:44;;;;;;;8.65;3.42;;;;;;;8.65;100.00;101883.09;4935854;29;20074;-79
2023/05/30 04:42:11;;;;;;;14.07;4.82;;;;;;;8.70;100.00;101884.94;4918171;29;20051;-83
2023/05/30 04:44:39;;;;;;;9.93;4.07;;;;;;;8.77;100.00;101881.59;4928336;29;20454;-79
2023/05/30 04:47:08;;;;;;;14.60;4.32;;;;;;;8.83;100.00;101887.78;4932064;29;20136;-82
2023/05/30 04:49:41;;;;;;;17.95;5.57;;;;;;;8.84;100.00;101887.81;4928647;29;20501;-84
2023/05/30 04:52:08;;;;;;;8.70;4.18;;;;;;;8.85;100.00;101886.06;4921824;29;20055;-79
2023/05/30 04:54:35;;;;;;;8.07;3.45;;;;;;;8.86;100.00;101890.44;4933010;29;20407;-80
2023/05/30 04:57:02;;;;;;;12.38;3.80;;;;;;;8.88;100.00;101889.59;4932154;29;20039;-82
2023/05/30 04:59:28;;;;;;;14.57;4.20;;;;;;;8.94;100.00;101894.06;4925196;29;20403;-83
2023/05/30 05:01:55;;;;;;;11.35;3.95;;;;;;;8.97;100.00;101888.91;4914635;29;20051;-82
2023/05/30 05:04:21;;;;;;;9.25;3.85;;;;;;;9.00;100.00;101894.16;4925371;29;20115;-84
2023/05/30 05:06:48;;;;;;;13.73;4.22;;;;;;;9.04;100.00;101890.75;4932542;29;20099;-78
2023/05/30 05:09:14;;;;;;;14.38;5.18;;;;;;;9.15;100.00;101892.66;4912704;29;20054;-79
2023/05/30 05:11:41;;;;;;;12.70;4.47;;;;;;;9.22;100.00;101898.03;4921639;29;20226;-84
2023/05/30 05:14:07;;;;;;;17.60;4.80;;;;;;;9.35;100.00;101890.41;4930357;29;20416;-81
2023/05/30 05:16:34;;;;;;;16.45;4.75;;;;;;;9.43;100.00;101880.94;4939589;29;20047;-80
2023/05/30 05:19:00;;;;;;;15.15;4.00;;;;;;;9.47;100.00;101876.66;4937895;29;20059;-79
2023/05/30 05:21:27;;;;;;;19.05;3.90;;;;;;;9.49;100.00;101880.16;4929372;29;20051;-82
2023/05/30 05:23:53;;;;;;;9.60;3.55;;;;;;;9.58;100.00;101875.94;4933381;29;20099;-84
2023/05/30 05:26:20;;;;;;;9.10;3.67;;;;;;;9.64;100.00;101875.16;4936297;29;20043;-77
2023/05/30 05:28:46;;;;;;;13.70;4.35;;;;;;;9.76;100.00;101877.06;4932621;29;20039;-78
2023/05/30 05:31:14;;;;;;;15.45;5.38;;;;;;;9.83;100.00;101872.78;4913009;29;20047;-85
2023/05/30 05:33:42;;;;;;;15.93;4.55;;;;;;;9.91;100.00;101872.03;4928337;29;20047;-81
2023/05/30 05:36:08;;;;;;;15.05;3.83;;;;;;;9.97;100.00;101873.84;4927310;29;20063;-78
2023/05/30 05:38:35;;;;;;;16.33;3.85;;;;;;;10.05;100.00;101881.81;4935771;29;20114;-81
2023/05/30 05:41:02;;;;;;;14.60;4.40;;;;;;;10.12;100.00;101883.66;4931675;29;20095;-79
2023/05/30 05:43:28;;;;;;;12.77;4.00;;;;;;;10.21;100.00;101877.66;4916430;29;20047;-79
2023/05/30 05:45:55;;;;;;;11.95;4.15;;;;;;;10.25;100.00;101874.22;4930981;29;20099;-82
2023/05/30 05:48:22;;;;;;;12.93;4.22;;;;;;;10.30;99.32;101879.50;4930977;29;20107;-83
2023/05/30 05:50:49;;;;;;;14.45;5.22;;;;;;;10.39;99.35;101892.72;4927794;29;20047;-79
2023/05/30 05:53:15;;;;;;;14.77;5.38;;;;;;;10.48;98.32;101887.63;4932870;29;20050;-81
2023/05/30 05:55:42;;;;;;;10.77;4.32;;;;;;;10.58;98.39;101885.97;4928906;29;20055;-81
2023/05/30 05:58:08;;;;;;;11.52;3.97;;;;;;;10.63;96.68;101884.28;4928693;29;20675;-79
2023/05/30 06:00:35;;;;;;;15.82;4.22;;;;;;;10.62;96.43;101884.25;4926370;29;20072;-82
2023/05/30 06:03:02;;;;;;;15.70;6.20;;;;;;;10.64;96.50;101893.00;4940580;29;20044;-81
2023/05/30 06:05:28;;;;;;;8.70;3.45;;;;;;;10.67;96.37;101890.44;4936604;29;20035;-78
2023/05/30 06:07:57;;;;;;;11.38;3.90;;;;;;;10.68;95.74;101887.81;4930143;29;20050;-79
2023/05/30 06:10:24;;;;;;;9.68;4.50;;;;;;;10.72;95.74;101891.34;4924734;29;20039;-83
2023/05/30 06:12:51;;;;;;;11.43;3.90;;;;;;;10.83;95.34;101887.06;4925958;29;20103;-78
2023/05/30 06:15:17;;;;;;;14.68;3.83;;;;;;;10.93;94.14;101893.31;4929334;29;20047;-85
2023/05/30 06:17:44;;;;;;;16.33;4.60;;;;;;;11.08;93.91;101882.06;4931227;29;20039;-82
2023/05/30 06:20:11;;;;;;;13.07;3.45;;;;;;;11.19;93.61;101877.81;4932386;29;20066;-81
2023/05/30 06:22:38;;;;;;;13.88;3.88;;;;;;;11.37;92.60;101886.69;4931712;29;20035;-80
2023/05/30 06:25:05;;;;;;;10.60;4.32;;;;;;;11.44;91.75;101883.22;4930891;29;20047;-79
2023/05/30 06:27:32;;;;;;;9.95;4.57;;;;;;;11.52;91.44;101883.28;4931578;29;20047;-83
2023/05/30 06:29:58;;;;;;;12.60;3.70;;;;;;;11.60;90.46;101884.22;4948310;29;20046;-80
2023/05/30 06:32:25;;;;;;;9.68;3.70;;;;;;;11.78;90.27;101885.22;4915886;29;20058;-79
2023/05/30 06:34:51;;;;;;;7.15;3.15;;;;;;;11.88;89.09;101882.63;4929506;29;20131;-79
2023/05/30 06:37:18;;;;;;;12.65;3.55;;;;;;;12.05;88.20;101893.25;4932165;29;20047;-79
2023/05/30 06:39:44;;;;;;;13.40;4.00;;;;;;;12.24;87.49;101888.06;4928927;29;20125;-86
2023/05/30 06:42:12;;;;;;;9.77;3.00;;;;;;;12.40;86.75;101895.16;4912649;29;20095;-80
2023/05/30 06:44:38;;;;;;;9.70;3.22;;;;;;;12.48;86.22;101903.06;4930790;29;20047;-80
2023/05/30 06:47:05;;;;;;;14.13;3.22;;;;;;;12.56;84.28;101893.44;4923912;29;20051;-81
2023/05/30 06:49:32;;;;;;;13.40;4.40;;;;;;;12.68;83.90;101908.34;4954091;28;20078;-79
2023/05/30 06:51:58;;;;;;;8.85;2.92;;;;;;;12.77;83.29;101914.53;4929761;29;20044;-82
2023/05/30 06:54:25;;;;;;;7.97;2.33;;;;;;;12.85;83.48;101903.16;4922867;29;21118;-78
2023/05/30 06:56:52;;;;;;;13.25;3.65;;;;;;;13.07;81.43;101904.06;4923036;29;20048;-79
2023/05/30 06:59:19;;;;;;;10.95;3.40;;;;;;;13.30;81.43;101907.56;4905364;29;20044;-79
2023/05/30 07:01:47;;;;;;;9.70;4.22;;;;;;;13.67;79.94;101904.94;4923437;29;20051;-81
2023/05/30 07:04:13;;;;;;;11.90;2.80;;;;;;;14.06;78.75;101905.69;4922074;29;20087;-79
2023/05/30 07:06:40;;;;;;;7.75;3.40;;;;;;;14.23;75.19;101892.47;4940735;29;20043;-82
2023/05/30 07:09:07;;;;;;;7.38;3.47;;;;;;;14.05;75.49;101906.56;4920485;29;20080;-86
2023/05/30 07:11:33;;;;;;;12.90;3.53;;;;;;;13.95;76.33;101911.00;4931390;29;20070;-79
2023/05/30 07:14:00;;;;;;;10.10;4.22;;;;;;;14.17;75.77;101909.19;4939285;29;20119;-84
2023/05/30 07:16:26;;;;;;;7.60;3.35;;;;;;;14.56;75.00;101908.97;4914714;29;20471;-80
2023/05/30 07:18:52;;;;;;;14.23;3.63;;;;;;;14.95;73.16;101900.88;4938189;29;20059;-85
2023/05/30 07:21:19;;;;;;;8.68;4.32;;;;;;;14.91;73.18;101905.28;4952352;29;20046;-86
2023/05/30 07:23:45;;;;;;;9.93;3.38;;;;;;;15.10;73.07;101897.28;4951754;29;20068;-87
2023/05/30 07:26:12;;;;;;;7.00;2.92;;;;;;;15.36;72.14;101895.28;4935965;29;20138;-89
2023/05/30 07:28:38;;;;;;;9.63;2.72;;;;;;;15.45;71.42;101909.25;4950736;29;20042;-82
2023/05/30 07:31:05;;;;;;;9.40;3.05;;;;;;;15.50;71.48;101905.72;4942095;29;20047;-81
2023/05/30 07:33:32;;;;;;;8.90;3.63;;;;;;;15.52;70.87;101901.28;4936274;29;20043;-80
2023/05/30 07:35:59;;;;;;;12.52;3.45;;;;;;;15.57;70.54;101903.88;4948459;29;20042;-89
2023/05/30 07:38:25;;;;;;;10.20;3.42;;;;;;;15.80;70.08;101908.03;4957391;29;20067;-79
2023/05/30 07:40:52;;;;;;;12.55;4.38;;;;;;;15.69;68.44;101910.78;4949759;29;20039;-84
2023/05/30 07:43:18;;;;;;;12.18;4.13;;;;;;;15.46;70.20;101913.66;4944588;29;20123;-82
2023/05/30 07:45:45;;;;;;;10.32;4.10;;;;;;;15.53;68.68;101920.63;4947285;29;20072;-85
2023/05/30 07:48:13;;;;;;;8.30;3.30;;;;;;;15.54;68.71;101919.75;4942855;29;20066;-82
2023/05/30 07:50:39;;;;;;;9.85;3.28;;;;;;;15.74;67.52;101918.69;4917203;29;20051;-82
2023/05/30 07:53:06;;;;;;;6.30;3.42;;;;;;;16.03;67.13;101921.03;4929456;29;20040;-86
2023/05/30 07:55:32;;;;;;;7.55;3.05;;;;;;;16.42;66.55;101920.56;4933919;29;20062;-82
2023/05/30 07:57:59;;;;;;;11.00;2.92;;;;;;;16.87;64.64;101913.75;4935287;29;20048;-84
2023/05/30 08:00:25;;;;;;;6.85;2.80;;;;;;;17.07;63.11;101909.94;4935848;29;20142;-80
2023/05/30 08:02:52;;;;;;;7.10;3.22;;;;;;;17.02;62.16;101911.81;4928955;29;20039;-83
2023/05/30 08:05:18;;;;;;;12.02;3.85;;;;;;;16.99;62.76;101904.78;4931364;29;20040;-80
2023/05/30 08:07:45;;;;;;;6.15;3.25;;;;;;;17.31;62.81;101913.97;4931830;29;20047;-79
2023/05/30 08:10:11;;;;;;;10.85;3.60;;;;;;;17.50;61.84;101897.78;4936778;29;20051;-80
2023/05/30 08:12:38;;;;;;;8.25;3.55;;;;;;;17.64;60.56;101894.88;4932097;29;20040;-80
2023/05/30 08:15:07;;;;;;;7.63;3.00;;;;;;;17.66;59.46;101896.59;4937270;29;20050;-82
2023/05/30 08:17:33;;;;;;;14.25;4.63;;;;;;;17.56;59.33;101896.78;4931826;29;20047;-79
2023/05/30 08:20:00;;;;;;;7.97;4.30;;;;;;;17.18;60.25;101891.25;4931854;29;20059;-84
2023/05/30 08:22:26;;;;;;;7.25;3.70;;;;;;;17.15;60.93;101886.03;4918514;29;20135;-84
2023/05/30 08:24:59;;;;;;;11.70;3.97;;;;;;;17.22;60.58;101894.72;4931205;29;20054;-83
2023/05/30 08:27:26;;;;;;;7.57;3.72;;;;;;;17.66;59.84;101893.06;4934553;29;20055;-80
2023/05/30 08:29:53;;;;;;;10.77;4.00;;;;;;;17.96;58.50;101891.63;4934908;29;20130;-79
2023/05/30 08:32:20;;;;;;;6.80;3.78;;;;;;;18.18;57.33;101885.88;4933592;29;20126;-80
2023/05/30 08:34:47;;;;;;;5.00;3.05;;;;;;;18.44;56.28;101882.66;4915321;29;20044;-80
2023/05/30 08:37:14;;;;;;;11.43;3.33;;;;;;;18.72;54.44;101886.47;4928819;29;20115;-80
2023/05/30 08:39:43;;;;;;;10.63;3.42;;;;;;;18.90;54.07;101893.16;4948216;29;20553;-80
2023/05/30 08:42:12;;;;;;;14.43;2.97;;;;;;;18.97;52.97;101897.41;4912011;29;20055;-88
2023/05/30 08:44:41;;;;;;;6.88;2.40;;;;;;;19.14;52.12;101889.91;4933986;29;20478;-80
2023/05/30 08:47:12;;;;;;;6.43;2.85;;;;;;;19.04;51.34;101903.44;4926059;29;20470;-80
2023/05/30 08:49:42;;;;;;;9.43;2.70;;;;;;;19.57;50.11;101901.19;4917082;29;20054;-81
2023/05/30 08:52:13;;;;;;;10.77;3.22;;;;;;;19.61;49.06;101900.19;4933455;29;20047;-80
2023/05/30 08:54:47;;;;;;;6.22;2.88;;;;;;;19.94;48.39;101904.66;4934094;29;20070;-80
2023/05/30 08:57:25;;;;;;;6.53;2.63;;;;;;;20.98;45.27;101902.41;4935273;29;20103;-81
2023/05/30 08:59:55;;;;;;;9.18;2.60;;;;;;;22.54;42.72;101898.66;4941297;29;20149;-80
2023/05/30 09:02:22;;;;;;;5.28;2.03;;;;;;;22.82;39.61;101894.91;4926374;29;20056;-81
2023/05/30 09:04:50;;;;;;;5.22;2.72;;;;;;;23.18;40.34;101891.66;4912163;29;20546;-82
2023/05/30 09:07:17;;;;;;;7.72;2.75;;;;;;;23.83;39.41;101899.53;4928577;29;20043;-85
2023/05/30 09:09:44;;;;;;;3.03;2.20;;;;;;;24.56;38.39;101907.78;4929073;29;20054;-88
2023/05/30 09:12:11;;;;;;;9.50;3.28;;;;;;;25.34;36.76;101899.50;4927198;29;20051;-79
2023/05/30 09:14:37;;;;;;;4.03;2.17;;;;;;;25.90;35.21;101906.41;4932564;29;20071;-78
2023/05/30 09:17:04;;;;;;;4.68;2.72;;;;;;;25.19;35.15;101912.75;4931991;29;20058;-80
2023/05/30 09:19:30;;;;;;;3.67;2.22;;;;;;;24.77;36.24;101912.13;4928083;29;20060;-80
2023/05/30 09:21:57;;;;;;;12.05;2.67;;;;;;;24.64;36.24;101913.69;4913046;29;20063;-81
2023/05/30 09:24:24;;;;;;;6.20;2.55;;;;;;;23.51;38.25;101918.75;4929466;29;20138;-79
2023/05/30 09:27:01;;;;;;;6.57;2.42;;;;;;;23.50;38.82;101913.47;4930529;29;20039;-81
2023/05/30 09:29:27;;;;;;;6.35;2.35;;;;;;;23.32;39.13;101910.63;4927767;29;20742;-82
2023/05/30 09:31:55;;;;;;;5.03;2.13;;;;;;;23.48;38.29;101904.63;4928831;29;20040;-82
2023/05/30 09:34:22;;;;;;;5.22;2.47;;;;;;;23.25;39.15;101909.19;4910033;29;20051;-80
2023/05/30 09:36:56;;;;;;;5.38;2.65;;;;;;;22.80;40.04;101916.31;4930157;29;20040;-81
2023/05/30 09:39:25;;;;;;;4.10;2.15;;;;;;;21.91;42.09;101924.09;4928891;29;20048;-83
2023/05/30 09:41:57;;;;;;;3.42;1.58;;;;;;;20.96;43.83;101926.44;4930086;29;20047;-83
2023/05/30 09:44:23;;;;;;;4.97;2.30;;;;;;;21.64;43.42;101920.63;4927188;29;20126;-80
2023/05/30 09:46:56;;;;;;;3.17;1.80;;;;;;;22.46;41.20;101918.53;4930916;29;20443;-81
2023/05/30 09:49:23;;;;;;;;;;;;;;;22.35;41.53;101928.72;4927690;29;20436;-83
2023/05/30 09:51:50;;;;;;;4.53;2.25;;;;;;;22.68;41.23;101930.16;4927588;29;19930;-79
2023/05/30 09:54:17;;;;;;;3.40;1.50;;;;;;;22.31;41.42;101921.75;4930587;29;20031;-86
2023/05/30 09:56:44;;;;;;;3.03;2.15;;;;;;;22.23;41.57;101921.19;4930230;29;20039;-82
2023/05/30 09:59:14;;;;;;;5.38;1.65;;;;;;;21.58;43.21;101921.72;4926641;29;20039;-81
2023/05/30 10:01:46;;;;;;;2.83;1.38;;;;;;;21.14;44.39;101922.28;4928174;29;20118;-92
2023/05/30 10:04:21;;;;;;;7.07;1.57;;;;;;;22.61;41.83;101918.88;4925859;29;20040;-84
2023/05/30 10:06:51;;;;;;;2.42;1.48;;;;;;;22.76;41.30;101914.69;4913488;29;20040;-82
2023/05/30 10:09:20;;;;;;;4.05;1.63;;;;;;;23.69;40.25;101906.38;4912192;29;21022;-83
2023/05/30 10:11:48;;;;;;;2.72;1.50;;;;;;;23.96;39.25;101908.75;4927343;29;20044;-85
2023/05/30 10:14:15;;;;;;;2.40;1.48;;;;;;;23.66;40.01;101909.16;4912997;29;20513;-84
2023/05/30 10:16:52;;;;;;;2.70;1.65;;;;;;;22.75;41.51;101910.28;4928753;29;20059;-82
2023/05/30 10:19:26;;;;;;;4.10;2.10;;;;;;;21.56;43.64;101914.72;4928019;29;20051;-86
2023/05/30 10:21:55;;;;;;;3.03;1.40;;;;;;;21.36;44.79;101905.59;4927161;29;20110;-81
2023/05/30 10:24:21;;;;;;;3.85;1.70;;;;;;;21.56;44.64;101910.28;4928557;29;20044;-79
2023/05/30 10:27:01;;;;;;;3.47;1.20;;;;;;;22.15;43.40;101902.81;4911984;29;20047;-82
2023/05/30 10:29:40;;;;;;;5.30;1.98;;;;;;;21.96;43.90;101902.63;4928396;29;20056;-80
2023/05/30 10:32:07;;;;;;;2.30;1.20;;;;;;;21.73;44.11;101904.34;4930902;29;20046;-79
2023/05/30 10:34:54;;;;;;;1.80;1.30;;;;;;;21.58;43.81;101908.41;4925076;29;20088;-83
2023/05/30 10:37:21;;;;;;;4.40;1.40;;;;;;;21.64;43.57;101913.53;4929935;29;20099;-82
2023/05/30 10:40:19;;;;;;;2.47;1.30;;;;;;;21.75;43.52;101909.59;4930131;29;20051;-86
2023/05/30 10:43:18;;;;;;;1.33;1.00;;;;;;;21.47;44.24;101908.75;4913434;29;20067;-79
2023/05/30 10:46:10;;;;;;;2.70;1.33;;;;;;;20.93;45.94;101913.22;4944770;29;20054;-86
2023/05/30 10:48:59;;;;;;;4.00;1.55;;;;;;;20.25;46.90;101915.25;4934399;29;20389;-81
2023/05/30 10:51:26;;;;;;;2.28;1.25;;;;;;;20.84;46.63;101907.31;4928697;29;20067;-80
2023/05/30 10:53:53;;;;;;;1.98;1.27;;;;;;;23.39;41.52;101892.56;4929813;29;20055;-80
2023/05/30 10:56:43;;;;;;;1.90;1.55;;;;;;;24.98;38.03;101895.06;4929218;29;20067;-83
2023/05/30 10:59:15;;;;;;;1.60;1.10;;;;;;;25.03;37.82;101901.06;4946111;29;20095;-81
2023/05/30 11:01:42;;;;;;;2.93;1.23;;;;;;;26.07;36.31;101885.84;4929116;29;20070;-83
2023/05/30 11:04:13;;;;;;;2.63;1.40;;;;;;;25.99;36.52;101886.25;4929036;29;20040;-83
2023/05/30 11:06:46;;;;;;;1.63;1.15;;;;;;;26.85;35.72;101883.25;4913532;29;20490;-83
2023/05/30 11:09:18;;;;;;;1.40;1.30;;;;;;;27.92;33.66;101879.53;4924737;29;20036;-80
2023/05/30 11:11:53;;;;;;;5.43;1.52;;;;;;;28.95;31.82;101884.63;4926481;29;20044;-81
2023/05/30 11:14:27;;;;;;;2.88;1.50;;;;;;;29.89;30.87;101880.88;4924754;29;20479;-88
2023/05/30 11:17:01;;;;;;;2.45;1.60;;;;;;;29.33;31.52;101876.66;4933211;29;20051;-81
2023/05/30 11:19:53;;;;;;;2.67;1.52;;;;;;;27.33;33.41;101874.22;4928486;29;20594;-80
2023/05/30 11:22:22;;;;;;;2.38;1.95;;;;;;;25.56;36.59;101889.41;4911754;29;20059;-80
2023/05/30 11:25:23;;;;;;;3.97;1.75;;;;;;;24.70;37.93;101883.06;4913568;29;20044;-83
2023/05/30 11:28:06;;;;;;;3.42;2.35;;;;;;;25.50;37.27;101878.16;4929452;29;20083;-87
2023/05/30 11:30:37;;;;;;;5.68;2.05;;;;;;;27.61;33.82;101872.53;4928876;29;20051;-84